.
WxDataArchive / Data Records for 2006-10-31
2006-10-30 October 2006 2006-11-01

Data Records for Tuesday, 31 October 2006

Time	Temp	Chill	HIndex	Humid	Dewpt	 Wind 	HiWind	WindDir	Rain 	Barom 
-----	----	-----	------	-----	-----	------	------	-------	-----	----- 
00:00	62.4	62.4	62.4	50	43.5	4	10	248	0.00	29.717 
00:05	62.3	62.3	62.3	50	43.4	3	13	248	0.00	29.717 
00:10	62.1	62.1	62.1	51	43.8	3	7	248	0.00	29.717 
00:15	62.0	62.0	62.0	51	43.7	4	9	248	0.00	29.719 
00:20	62.0	62.0	62.0	51	43.7	4	11	270	0.00	29.719 
00:25	61.8	61.8	61.8	51	43.5	2	6	248	0.00	29.719 
00:30	61.6	61.6	61.6	51	43.3	4	10	248	0.00	29.707 
00:35	61.6	61.6	61.6	51	43.3	3	6	248	0.00	29.707 
00:40	61.3	61.3	61.3	52	43.5	3	6	248	0.00	29.707 
00:45	61.3	61.3	61.3	52	43.5	2	7	270	0.00	29.710 
00:50	61.3	61.3	61.3	52	43.5	3	7	248	0.00	29.710 
00:55	61.3	61.3	61.3	52	43.5	3	7	248	0.00	29.710 
01:00	61.3	61.3	61.3	52	43.5	3	8	248	0.00	29.720 
01:05	61.2	61.2	61.2	52	43.4	3	6	270	0.00	29.720 
01:10	61.0	61.0	61.0	53	43.7	3	7	248	0.00	29.720 
01:15	60.9	60.9	60.9	53	43.7	3	7	248	0.00	29.721 
01:20	60.9	60.9	60.9	53	43.7	3	5	248	0.00	29.721 
01:25	60.9	60.9	60.9	53	43.7	3	9	248	0.00	29.721 
01:30	60.9	60.9	60.9	52	43.2	3	11	248	0.00	29.719 
01:35	60.9	60.9	60.9	52	43.2	4	7	248	0.00	29.719 
01:40	60.9	60.9	60.9	52	43.2	3	6	248	0.00	29.719 
01:45	60.9	60.9	60.9	52	43.2	3	11	248	0.00	29.716 
01:50	61.0	61.0	61.0	52	43.2	4	8	248	0.00	29.716 
01:55	61.0	61.0	61.0	52	43.2	4	8	248	0.00	29.716 
02:00	61.2	61.2	61.2	52	43.4	4	10	248	0.00	29.719 
02:05	61.3	61.3	61.3	52	43.5	5	13	270	0.00	29.719 
02:10	61.5	61.5	61.5	52	43.7	4	9	248	0.00	29.719 
02:15	61.5	61.5	61.5	52	43.7	5	12	270	0.00	29.720 
02:20	61.5	61.5	61.5	53	44.2	4	10	270	0.00	29.720 
02:25	61.5	61.5	61.5	53	44.2	4	12	248	0.00	29.720 
02:30	61.5	61.5	61.5	53	44.2	4	10	248	0.00	29.720 
02:35	61.5	61.5	61.5	53	44.2	4	9	248	0.00	29.720 
02:40	61.6	61.6	61.6	54	44.8	4	9	248	0.00	29.720 
02:45	61.5	61.5	61.5	54	44.7	3	6	270	0.00	29.719 
02:50	61.8	61.8	61.8	55	45.5	5	12	270	0.00	29.719 
02:55	61.8	61.8	61.8	55	45.5	4	15	248	0.00	29.719 
03:00	61.8	61.8	61.8	56	45.9	4	7	248	0.00	29.718 
03:05	61.8	61.8	61.8	56	45.9	5	11	248	0.00	29.718 
03:10	61.8	61.8	61.8	57	46.4	4	10	248	0.00	29.718 
03:15	61.8	61.8	61.8	58	46.9	3	7	248	0.00	29.708 
03:20	61.6	61.6	61.6	58	46.7	5	12	248	0.00	29.708 
03:25	61.6	61.6	61.6	58	46.7	4	13	248	0.00	29.708 
03:30	61.6	61.6	61.6	58	46.7	5	10	270	0.00	29.719 
03:35	61.6	61.6	61.6	59	47.1	4	11	248	0.00	29.719 
03:40	61.5	61.5	61.5	59	47.0	3	7	248	0.00	29.719 
03:45	61.5	61.5	61.5	60	47.5	5	10	270	0.00	29.719 
03:50	61.5	61.5	61.5	60	47.5	4	9	248	0.00	29.719 
03:55	61.5	61.5	61.5	60	47.5	5	11	248	0.00	29.719 
04:00	61.5	61.5	61.5	60	47.5	4	14	270	0.00	29.719 
04:05	61.5	61.5	61.5	60	47.5	5	10	248	0.00	29.719 
04:10	61.5	61.5	61.5	61	47.9	4	12	270	0.00	29.719 
04:15	61.5	61.5	61.5	61	47.9	4	11	270	0.00	29.720 
04:20	61.3	61.3	61.3	61	47.7	3	7	248	0.00	29.720 
04:25	61.3	61.3	61.3	62	48.2	4	10	248	0.00	29.720 
04:30	61.3	61.3	61.3	61	47.7	6	15	248	0.00	29.720 
04:35	61.3	61.3	61.3	62	48.2	4	10	248	0.00	29.720 
04:40	61.3	61.3	61.3	62	48.2	4	10	248	0.00	29.720 
04:45	61.2	61.2	61.2	62	48.1	3	9	248	0.00	29.724 
04:50	61.3	61.3	61.3	62	48.2	5	11	248	0.00	29.724 
04:55	61.2	61.2	61.2	63	48.5	4	13	270	0.00	29.724 
05:00	61.2	61.2	61.2	63	48.5	4	11	270	0.00	29.733 
05:05	61.2	61.2	61.2	64	48.9	3	12	248	0.00	29.733 
05:10	60.9	60.9	60.9	68	50.3	4	9	248	0.00	29.733 
05:15	60.1	60.1	60.1	72	51.0	3	9	248	0.00	29.738 
05:20	59.3	59.3	59.3	74	51.0	3	5	248	0.00	29.738 
05:25	58.9	58.9	58.9	74	50.6	3	5	248	0.00	29.738 
05:30	59.0	59.0	59.0	73	50.4	4	9	248	0.00	29.739 
05:35	59.3	59.3	59.3	73	50.6	3	7	248	0.00	29.739 
05:40	59.5	59.5	59.5	72	50.5	3	9	248	0.00	29.739 
05:45	59.6	59.6	59.6	71	50.2	3	7	270	0.00	29.742 
05:50	59.9	59.9	59.9	71	50.5	3	6	248	0.00	29.742 
05:55	59.9	59.9	59.9	71	50.5	3	7	270	0.00	29.742 
06:00	60.1	60.1	60.1	71	50.7	3	7	248	0.00	29.739 
06:05	60.1	60.1	60.1	71	50.7	3	7	248	0.00	29.739 
06:10	60.2	60.2	60.2	71	50.8	4	10	248	0.00	29.739 
06:15	60.2	60.2	60.2	71	50.8	3	6	248	0.00	29.741 
06:20	60.2	60.2	60.2	71	50.8	3	10	248	0.00	29.741 
06:25	60.2	60.2	60.2	71	50.8	2	7	248	0.00	29.741 
06:30	60.2	60.2	60.2	71	50.8	3	6	248	0.00	29.739 
06:35	60.2	60.2	60.2	71	50.8	3	9	248	0.00	29.739 
06:40	60.2	60.2	60.2	71	50.8	4	9	248	0.00	29.739 
06:45	60.4	60.4	60.4	72	51.3	3	9	248	0.00	29.742 
06:50	60.4	60.4	60.4	72	51.3	3	9	248	0.00	29.742 
06:55	60.4	60.4	60.4	72	51.3	3	8	270	0.00	29.742 
07:00	60.4	60.4	60.4	72	51.3	3	8	248	0.00	29.740 
07:05	60.4	60.4	60.4	72	51.3	3	9	248	0.00	29.740 
07:10	60.5	60.5	60.5	72	51.4	4	11	248	0.00	29.740 
07:15	60.5	60.5	60.5	72	51.4	3	8	248	0.00	29.748 
07:20	60.5	60.5	60.5	73	51.8	4	9	248	0.00	29.748 
07:25	60.5	60.5	60.5	72	51.4	4	11	248	0.00	29.748 
07:30	60.5	60.5	60.5	73	51.8	4	7	248	0.00	29.755 
07:35	60.5	60.5	60.5	73	51.8	4	10	248	0.00	29.755 
07:40	60.4	60.4	60.4	74	52.1	4	10	248	0.00	29.755 
07:45	60.2	60.2	60.2	74	51.9	4	10	270	0.00	29.758 
07:50	60.1	60.1	60.1	75	52.1	3	7	248	0.00	29.758 
07:55	59.9	59.9	59.9	76	52.3	2	5	248	0.00	29.758 
08:00	59.8	59.8	59.8	77	52.6	3	6	248	0.00	29.766 
08:05	59.6	59.6	59.6	78	52.7	3	9	248	0.00	29.766 
08:10	59.5	59.5	59.5	79	53.0	2	6	248	0.01	29.766 
08:15	59.3	59.3	59.3	79	52.8	3	7	248	0.00	29.771 
08:20	59.3	59.3	59.3	80	53.1	3	6	248	0.00	29.771 
08:25	59.2	59.2	59.2	81	53.4	2	5	248	0.00	29.771 
08:30	59.2	59.2	59.2	81	53.4	3	8	248	0.00	29.772 
08:35	59.2	59.2	59.2	81	53.4	3	10	248	0.00	29.772 
08:40	59.0	59.0	59.0	81	53.2	2	4	248	0.00	29.772 
08:45	59.0	59.0	59.0	82	53.5	2	7	248	0.00	29.779 
08:50	58.9	58.9	58.9	83	53.7	2	6	248	0.00	29.779 
08:55	58.7	58.7	58.7	83	53.5	2	7	248	0.00	29.779 
09:00	58.6	58.6	58.6	84	53.8	3	5	248	0.00	29.783 
09:05	58.4	58.4	58.4	84	53.6	2	5	248	0.00	29.783 
09:10	58.4	58.4	58.4	84	53.6	3	9	248	0.00	29.783 
09:15	58.3	58.3	58.3	85	53.8	3	7	248	0.00	29.788 
09:20	58.0	58.0	58.0	86	53.8	3	5	248	0.00	29.788 
09:25	57.6	57.6	57.6	87	53.8	2	5	248	0.00	29.788 
09:30	57.5	57.5	57.5	88	54.0	3	7	248	0.00	29.801 
09:35	57.5	57.5	57.5	88	54.0	2	5	248	0.00	29.801 
09:40	57.5	57.5	57.5	88	54.0	4	9	248	0.00	29.801 
09:45	57.2	57.2	57.2	85	52.7	5	10	270	0.00	29.804 
09:50	56.9	56.9	56.9	84	52.1	5	13	270	0.00	29.804 
09:55	56.6	56.6	56.6	85	52.1	3	7	248	0.00	29.804 
10:00	56.3	56.3	56.3	85	51.8	3	12	270	0.00	29.808 
10:05	56.2	56.2	56.2	85	51.7	3	6	248	0.00	29.808 
10:10	56.0	56.0	56.0	85	51.6	3	9	270	0.00	29.808 
10:15	55.7	55.7	55.7	83	50.6	5	12	270	0.00	29.812 
10:20	55.6	55.6	55.6	82	50.2	4	10	248	0.00	29.812 
10:25	55.4	55.4	55.4	82	50.0	3	9	248	0.00	29.812 
10:30	55.1	55.1	55.1	82	49.7	3	5	270	0.00	29.822 
10:35	54.8	54.8	54.8	81	49.1	3	7	270	0.00	29.822 
10:40	55.0	55.0	55.0	80	48.9	3	7	248	0.00	29.822 
10:45	55.0	55.0	55.0	78	48.3	3	9	270	0.00	29.824 
10:50	54.7	54.7	54.7	64	42.8	3	5	315	0.00	29.824 
10:55	54.4	54.4	54.4	65	42.9	3	5	270	0.00	29.824 
11:00	53.8	53.8	53.8	65	42.3	3	7	270	0.00	29.845 
11:05	53.5	53.5	53.5	65	42.0	3	7	270	0.00	29.845 
11:10	53.2	53.2	53.2	66	42.1	3	7	270	0.00	29.845 
11:15	52.8	52.8	52.8	65	41.4	3	6	270	0.00	29.847 
11:20	52.6	52.6	52.6	65	41.2	3	6	270	0.00	29.847 
11:25	52.5	52.5	52.5	65	41.1	4	7	270	0.00	29.847 
11:30	52.3	52.3	52.3	64	40.5	3	9	270	0.00	29.856 
11:35	52.3	52.3	52.3	66	41.3	3	5	248	0.00	29.856 
11:40	52.3	52.3	52.3	66	41.3	2	5	270	0.00	29.856 
11:45	52.2	52.2	52.2	64	40.4	3	7	315	0.00	29.860 
11:50	52.0	52.0	52.0	64	40.2	3	6	270	0.00	29.860 
11:55	52.0	52.0	52.0	63	39.8	3	6	270	0.00	29.860 
12:00	52.0	52.0	52.0	64	40.2	2	6	270	0.00	29.862 
12:05	52.2	52.2	52.2	63	40.0	1	4	270	0.00	29.862 
12:10	52.0	52.0	52.0	64	40.2	2	6	315	0.00	29.862 
12:15	51.9	51.9	51.9	64	40.1	2	6	315	0.00	29.867 
12:20	51.9	51.9	51.9	64	40.1	2	4	292	0.00	29.867 
12:25	51.7	51.7	51.7	62	39.1	2	4	315	0.00	29.867 
12:30	51.9	51.9	51.9	63	39.7	1	4	315	0.00	29.867 
12:35	51.9	51.9	51.9	63	39.7	3	7	270	0.00	29.867 
12:40	51.6	51.6	51.6	63	39.4	3	7	270	0.00	29.867 
12:45	51.3	51.3	51.3	62	38.7	3	7	315	0.00	29.869 
12:50	51.1	51.1	51.1	64	39.4	3	11	270	0.00	29.869 
12:55	51.1	51.1	51.1	65	39.7	2	6	292	0.00	29.869 
13:00	50.8	50.8	50.8	63	38.7	3	5	315	0.00	29.876 
13:05	50.7	50.7	50.7	64	39.0	3	5	315	0.00	29.876 
13:10	50.8	50.8	50.8	63	38.7	2	4	315	0.00	29.876 
13:15	51.1	51.1	51.1	64	39.4	2	5	315	0.00	29.876 
13:20	51.9	51.9	51.9	63	39.7	2	7	315	0.00	29.876 
13:25	52.0	52.0	52.0	62	39.4	2	6	270	0.00	29.876 
13:30	52.0	52.0	52.0	63	39.8	3	6	270	0.00	29.876 
13:35	51.7	51.7	51.7	63	39.5	3	6	270	0.00	29.876 
13:40	51.6	51.6	51.6	63	39.4	4	6	270	0.00	29.876 
13:45	51.3	51.3	51.3	62	38.7	2	4	270	0.00	29.871 
13:50	51.4	51.4	51.4	62	38.8	2	4	270	0.00	29.871 
13:55	51.4	51.4	51.4	61	38.4	2	6	315	0.00	29.871 
14:00	51.7	51.7	51.7	59	37.8	2	7	270	0.00	29.874 
14:05	51.7	51.7	51.7	59	37.8	1	4	270	0.00	29.874 
14:10	51.4	51.4	51.4	60	38.0	2	4	270	0.00	29.874 
14:15	51.1	51.1	51.1	58	36.8	2	5	270	0.00	29.879 
14:20	50.8	50.8	50.8	58	36.6	2	4	315	0.00	29.879 
14:25	50.8	50.8	50.8	58	36.6	1	2	315	0.00	29.879 
14:30	50.8	50.8	50.8	55	35.2	2	7	315	0.00	29.891 
14:35	51.0	51.0	51.0	55	35.4	3	6	315	0.00	29.891 
14:40	51.1	51.1	51.1	55	35.5	2	5	315	0.00	29.891 
14:45	51.3	51.3	51.3	55	35.7	2	8	315	0.00	29.891 
14:50	51.6	51.6	51.6	54	35.5	2	7	315	0.00	29.891 
14:55	51.4	51.4	51.4	53	34.8	3	5	270	0.00	29.891 
15:00	51.9	51.9	51.9	53	35.3	3	6	270	0.00	29.884 
15:05	51.6	51.6	51.6	52	34.6	2	5	270	0.00	29.884 
15:10	52.0	52.0	52.0	50	33.9	3	9	270	0.00	29.884 
15:15	52.0	52.0	52.0	49	33.4	2	4	292	0.00	29.901 
15:20	52.2	52.2	52.2	51	34.6	2	5	338	0.00	29.901 
15:25	52.2	52.2	52.2	49	33.6	2	9	315	0.00	29.901 
15:30	52.3	52.3	52.3	44	31.0	3	7	270	0.00	29.905 
15:35	52.3	52.3	52.3	44	31.0	2	5	270	0.00	29.905 
15:40	52.3	52.3	52.3	42	29.9	2	6	270	0.00	29.905 
15:45	52.0	52.0	52.0	39	27.8	2	6	315	0.00	29.908 
15:50	51.9	51.9	51.9	43	30.1	2	4	315	0.00	29.908 
15:55	52.0	52.0	52.0	37	26.5	1	4	315	0.00	29.908 
16:00	51.9	51.9	51.9	36	25.8	2	5	315	0.00	29.914 
16:05	51.7	51.7	51.7	36	25.6	2	5	338	0.00	29.914 
16:10	51.7	51.7	51.7	37	26.3	2	5	338	0.00	29.914 
16:15	51.7	51.7	51.7	39	27.6	2	5	270	0.00	29.924 
16:20	51.7	51.7	51.7	33	23.5	2	6	315	0.00	29.924 
16:25	51.6	51.6	51.6	35	24.9	1	3	292	0.00	29.924 
16:30	51.3	51.3	51.3	33	23.2	2	4	270	0.00	29.931 
16:35	51.1	51.1	51.1	35	24.4	2	5	270	0.00	29.931 
16:40	50.8	50.8	50.8	32	22.0	2	5	315	0.00	29.931 
16:45	50.5	50.5	50.5	34	23.2	1	4	315	0.00	29.936 
16:50	50.4	50.4	50.4	35	23.8	1	3	338	0.00	29.936 
16:55	50.1	50.1	50.1	35	23.5	1	3	315	0.00	29.936 
17:00	49.8	49.8	49.8	35	23.3	2	7	315	0.00	29.943 
17:05	49.4	49.4	49.4	36	23.6	2	6	270	0.00	29.943 
17:10	49.1	49.1	49.1	37	24.0	1	5	315	0.00	29.943 
17:15	48.8	48.8	48.8	38	24.3	1	4	315	0.00	29.950 
17:20	48.3	48.3	48.3	39	24.5	2	5	315	0.00	29.950 
17:25	48.0	48.0	48.0	40	24.8	1	5	292	0.00	29.950 
17:30	47.6	47.6	47.6	40	24.5	1	3	292	0.00	29.959 
17:35	47.3	47.3	47.3	41	24.8	1	4	248	0.00	29.959 
17:40	47.0	47.0	47.0	41	24.5	1	3	315	0.00	29.959 
17:45	46.7	46.7	46.7	42	24.8	0	2	292	0.00	29.967 
17:50	46.4	46.4	46.4	43	25.1	1	4	292	0.00	29.967 
17:55	46.2	46.2	46.2	43	25.0	1	5	315	0.00	29.967 
18:00	46.0	46.0	46.0	45	25.9	1	5	315	0.00	29.977 
18:05	45.7	45.7	45.7	46	26.1	1	3	292	0.00	29.977 
18:10	45.4	45.4	45.4	47	26.4	1	4	315	0.00	29.977 
18:15	45.1	45.1	45.1	48	26.6	1	2	292	0.00	29.990 
18:20	44.8	44.8	44.8	49	26.8	0	2	270	0.00	29.990 
18:25	44.5	44.5	44.5	50	27.0	1	2	270	0.00	29.990 
18:30	44.2	44.2	44.2	50	26.8	0	3	315	0.00	29.995 
18:35	44.1	44.1	44.1	51	27.1	0	2	315	0.00	29.995 
18:40	43.8	43.8	43.8	51	26.9	1	2	338	0.00	29.995 
18:45	43.6	43.6	43.6	51	26.7	0	2	338	0.00	30.005 
18:50	43.5	43.5	43.5	51	26.6	1	2	338	0.00	30.005 
18:55	43.3	43.3	43.3	52	26.9	0	3	338	0.00	30.005 
19:00	43.1	43.1	43.1	52	26.7	0	2	292	0.00	30.010 
19:05	42.8	42.8	42.8	53	26.9	0	1	292	0.00	30.010 
19:10	42.5	42.5	42.5	54	27.0	0	1	292	0.00	30.010 
19:15	42.2	42.2	42.2	54	26.8	0	1	292	0.00	30.012 
19:20	42.1	42.1	42.1	54	26.7	0	1	292	0.00	30.012 
19:25	41.9	41.9	41.9	55	26.9	0	1	292	0.00	30.012 
19:30	41.6	41.6	41.6	56	27.1	0	0	---	0.00	30.016 
19:35	41.5	41.5	41.5	56	27.0	0	1	292	0.00	30.016 
19:40	41.3	41.3	41.3	57	27.2	0	0	---	0.00	30.016 
19:45	41.1	41.1	41.1	58	27.5	0	1	292	0.00	30.023 
19:50	40.9	40.9	40.9	58	27.3	0	0	---	0.00	30.023 
19:55	40.6	40.6	40.6	59	27.4	0	0	---	0.00	30.023 
20:00	40.5	40.5	40.5	60	27.7	0	1	292	0.00	30.029 
20:05	40.3	40.3	40.3	60	27.5	0	0	---	0.00	30.029 
20:10	40.1	40.1	40.1	60	27.3	0	1	292	0.00	30.029 
20:15	40.1	40.1	40.1	61	27.7	0	0	---	0.00	30.032 
20:20	39.9	39.9	39.9	61	27.6	0	1	292	0.00	30.032 
20:25	39.9	39.9	39.9	62	28.0	0	0	---	0.00	30.032 
20:30	39.9	39.9	39.9	62	28.0	0	0	---	0.00	30.029 
20:35	39.9	39.9	39.9	61	27.6	0	1	292	0.00	30.029 
20:40	39.8	39.8	39.8	62	27.9	0	0	---	0.00	30.029 
20:45	39.6	39.6	39.6	62	27.7	0	0	---	0.00	30.030 
20:50	39.3	39.3	39.3	63	27.8	0	0	---	0.00	30.030 
20:55	39.2	39.2	39.2	63	27.7	0	0	---	0.00	30.030 
21:00	38.9	38.9	38.9	64	27.8	0	0	---	0.00	30.031 
21:05	38.8	38.8	38.8	64	27.7	0	0	---	0.00	30.031 
21:10	38.6	38.6	38.6	65	27.9	0	0	---	0.00	30.031 
21:15	38.3	38.3	38.3	65	27.6	0	0	---	0.00	30.038 
21:20	38.0	38.0	38.0	66	27.7	0	0	---	0.00	30.038 
21:25	37.8	37.8	37.8	66	27.5	0	0	---	0.00	30.038 
21:30	37.3	37.3	37.3	67	27.4	0	0	---	0.00	30.041 
21:35	37.0	37.0	37.0	68	27.4	0	0	---	0.00	30.041 
21:40	36.6	36.6	36.6	70	27.8	0	0	---	0.00	30.041 
21:45	36.2	36.2	36.2	72	28.1	0	0	---	0.00	30.048 
21:50	35.9	35.9	35.9	72	27.8	0	0	---	0.00	30.048 
21:55	35.6	35.6	35.6	73	27.8	0	0	---	0.00	30.048 
22:00	35.3	35.3	35.3	73	27.5	0	0	---	0.00	30.052 
22:05	35.0	35.0	35.0	73	27.2	0	0	---	0.00	30.052 
22:10	34.7	34.7	34.7	74	27.3	0	0	---	0.00	30.052 
22:15	34.4	34.4	34.4	76	27.6	0	0	---	0.00	30.055 
22:20	34.1	34.1	34.1	76	27.3	0	0	---	0.00	30.055 
22:25	34.0	34.0	34.0	77	27.6	0	0	---	0.00	30.055 
22:30	33.7	33.7	33.7	78	27.6	0	0	---	0.00	30.057 
22:35	33.5	33.5	33.5	79	27.7	0	0	---	0.00	30.057 
22:40	33.4	33.4	33.4	80	27.9	0	0	---	0.00	30.057 
22:45	33.4	33.4	33.4	80	27.9	0	0	---	0.00	30.063 
22:50	33.4	33.4	33.4	80	27.9	0	0	---	0.00	30.063 
22:55	33.2	33.2	33.2	81	28.0	0	0	---	0.00	30.063 
23:00	33.2	33.2	33.2	82	28.3	0	0	---	0.00	30.060 
23:05	33.1	33.1	33.1	82	28.2	0	0	---	0.00	30.060 
23:10	33.1	33.1	33.1	81	27.9	0	0	---	0.00	30.060 
23:15	32.9	32.9	32.9	81	27.7	0	0	---	0.00	30.062 
23:20	32.8	32.8	32.8	82	27.9	0	0	---	0.00	30.062 
23:25	32.7	32.7	32.7	83	28.1	0	0	---	0.00	30.062 
23:30	32.5	32.5	32.5	83	27.9	0	0	---	0.00	30.067 
23:35	32.4	32.4	32.4	83	27.8	0	0	---	0.00	30.067 
23:40	32.2	32.2	32.2	84	27.9	0	0	---	0.00	30.067 
23:45	32.1	32.1	32.1	84	27.8	0	0	---	0.00	30.071 
23:50	31.9	31.9	31.9	84	27.6	0	0	---	0.00	30.071 
23:55	31.8	31.8	31.8	85	27.8	0	0	---	0.00	30.071 

CoCoRaHS
IN-AL-39
A2 Web Hosting
Creative Commons License
GoDaddy
Look for:

loaded 2017-12-13 10:00:47 • last modified 2010-11-18 10:43:29
Privacy PolicyDisclaimer
• wx.awcolley.com is powered by PmWiki v.2002016 •
• all content (unless otherwise noted) © 2017 A W Colley